Ansted, West Virginia
Current Conditions -  °F | °C
As of 5:06 PM on Wednesday 22 Oct 2014 (Local Time) from KBKW Reporting Station
Overcast Overcast  
Wind Chill: 40°   Ceiling: 600
Heat Index: 44°   Visibility: 9mi
Dew Point: 41°   Wind: 7mph
Humidity: 89%   Direction: 320°NW
Pressure: 30.16"   Gusts: NA
Location:  38.14°N, 81.1°W
Report Text: KBKW 222106Z AUTO 32006KT 9SM OVC006 07/05 A3016 RMK AO2 CIG 003V008 T00670050 TSNO
Loading
Personal Weather Stations






























Interactive Weather Map
Tropical Storm Tracking
New forecast layout! Learn more

10-Day Weather Forecast

Advertisements
Track Severe Weather on mobile